sensor_id;sensor_type;location;lat;lon;timestamp;temperature;humidity
33594;DHT22;19920;52.242;20.940;2023-12-20T00:02:19;7.00;99.90
33594;DHT22;19920;52.242;20.940;2023-12-20T00:04:45;6.90;99.90
33594;DHT22;19920;52.242;20.940;2023-12-20T00:07:10;6.80;99.90
33594;DHT22;19920;52.242;20.940;2023-12-20T00:09:36;6.80;99.90
33594;DHT22;19920;52.242;20.940;2023-12-20T00:12:02;6.90;99.90
33594;DHT22;19920;52.242;20.940;2023-12-20T00:14:27;6.90;99.90
33594;DHT22;19920;52.242;20.940;2023-12-20T00:16:53;6.90;99.90
33594;DHT22;19920;52.242;20.940;2023-12-20T00:19:19;6.90;99.90
33594;DHT22;19920;52.242;20.940;2023-12-20T00:21:44;7.00;99.90
33594;DHT22;19920;52.242;20.940;2023-12-20T00:24:10;7.00;99.90
33594;DHT22;19920;52.242;20.940;2023-12-20T00:26:35;7.00;99.90
33594;DHT22;19920;52.242;20.940;2023-12-20T00:29:01;7.00;99.90
33594;DHT22;19920;52.242;20.940;2023-12-20T00:31:26;7.00;99.90
33594;DHT22;19920;52.242;20.940;2023-12-20T00:33:52;7.00;99.90
33594;DHT22;19920;52.242;20.940;2023-12-20T00:36:17;7.00;99.90
33594;DHT22;19920;52.242;20.940;2023-12-20T00:38:43;7.00;99.90
33594;DHT22;19920;52.242;20.940;2023-12-20T00:41:09;7.00;99.90
33594;DHT22;19920;52.242;20.940;2023-12-20T00:43:34;7.00;99.90
33594;DHT22;19920;52.242;20.940;2023-12-20T00:46:00;7.00;99.90
33594;DHT22;19920;52.242;20.940;2023-12-20T00:48:25;7.10;99.90
33594;DHT22;19920;52.242;20.940;2023-12-20T00:50:52;7.10;99.90
33594;DHT22;19920;52.242;20.940;2023-12-20T00:53:18;7.00;99.90
33594;DHT22;19920;52.242;20.940;2023-12-20T00:55:44;7.00;99.90
33594;DHT22;19920;52.242;20.940;2023-12-20T00:58:10;7.10;99.90
33594;DHT22;19920;52.242;20.940;2023-12-20T01:00:35;7.00;99.90
33594;DHT22;19920;52.242;20.940;2023-12-20T01:03:01;7.00;99.90
33594;DHT22;19920;52.242;20.940;2023-12-20T01:05:26;7.10;99.90
33594;DHT22;19920;52.242;20.940;2023-12-20T01:07:52;7.10;99.90
33594;DHT22;19920;52.242;20.940;2023-12-20T01:10:17;7.20;99.90
33594;DHT22;19920;52.242;20.940;2023-12-20T01:12:43;7.20;99.90
33594;DHT22;19920;52.242;20.940;2023-12-20T01:15:09;7.10;99.90
33594;DHT22;19920;52.242;20.940;2023-12-20T01:17:35;7.10;99.90
33594;DHT22;19920;52.242;20.940;2023-12-20T01:20:01;7.10;99.90
33594;DHT22;19920;52.242;20.940;2023-12-20T01:22:26;7.10;99.90
33594;DHT22;19920;52.242;20.940;2023-12-20T01:24:52;7.10;99.90
33594;DHT22;19920;52.242;20.940;2023-12-20T01:27:17;7.10;99.90
33594;DHT22;19920;52.242;20.940;2023-12-20T01:29:43;7.20;99.90
33594;DHT22;19920;52.242;20.940;2023-12-20T01:32:09;7.10;99.90
33594;DHT22;19920;52.242;20.940;2023-12-20T01:34:34;7.10;99.90
33594;DHT22;19920;52.242;20.940;2023-12-20T01:37:01;7.10;99.90
33594;DHT22;19920;52.242;20.940;2023-12-20T01:39:27;7.10;99.90
33594;DHT22;19920;52.242;20.940;2023-12-20T01:41:52;7.10;99.90
33594;DHT22;19920;52.242;20.940;2023-12-20T01:44:18;7.10;99.90
33594;DHT22;19920;52.242;20.940;2023-12-20T01:46:43;7.10;99.90
33594;DHT22;19920;52.242;20.940;2023-12-20T01:49:09;7.10;99.90
33594;DHT22;19920;52.242;20.940;2023-12-20T01:51:35;7.10;99.90
33594;DHT22;19920;52.242;20.940;2023-12-20T01:54:01;7.20;99.90
33594;DHT22;19920;52.242;20.940;2023-12-20T01:56:28;7.20;99.90
33594;DHT22;19920;52.242;20.940;2023-12-20T01:58:56;7.30;99.90
33594;DHT22;19920;52.242;20.940;2023-12-20T02:01:22;7.20;99.90
33594;DHT22;19920;52.242;20.940;2023-12-20T02:03:48;7.10;99.90
33594;DHT22;19920;52.242;20.940;2023-12-20T02:06:13;7.10;99.90
33594;DHT22;19920;52.242;20.940;2023-12-20T02:08:39;7.10;99.90
33594;DHT22;19920;52.242;20.940;2023-12-20T02:11:05;7.10;99.90
33594;DHT22;19920;52.242;20.940;2023-12-20T02:13:31;7.20;99.90
33594;DHT22;19920;52.242;20.940;2023-12-20T02:15:57;7.10;99.90
33594;DHT22;19920;52.242;20.940;2023-12-20T02:18:23;7.10;99.90
33594;DHT22;19920;52.242;20.940;2023-12-20T02:20:49;7.00;99.90
33594;DHT22;19920;52.242;20.940;2023-12-20T02:23:14;7.10;99.90
33594;DHT22;19920;52.242;20.940;2023-12-20T02:25:40;7.10;99.90
33594;DHT22;19920;52.242;20.940;2023-12-20T02:28:06;7.00;99.90
33594;DHT22;19920;52.242;20.940;2023-12-20T02:30:32;7.00;99.90
33594;DHT22;19920;52.242;20.940;2023-12-20T02:32:59;7.00;99.90
33594;DHT22;19920;52.242;20.940;2023-12-20T02:35:25;7.00;99.90
33594;DHT22;19920;52.242;20.940;2023-12-20T02:37:51;7.00;99.90
33594;DHT22;19920;52.242;20.940;2023-12-20T02:40:16;7.00;99.90
33594;DHT22;19920;52.242;20.940;2023-12-20T02:42:42;7.00;99.90
33594;DHT22;19920;52.242;20.940;2023-12-20T02:45:08;7.00;99.90
33594;DHT22;19920;52.242;20.940;2023-12-20T02:47:33;6.90;99.90
33594;DHT22;19920;52.242;20.940;2023-12-20T02:49:59;7.00;99.90
33594;DHT22;19920;52.242;20.940;2023-12-20T02:52:25;6.90;99.90
33594;DHT22;19920;52.242;20.940;2023-12-20T02:54:50;7.00;99.90
33594;DHT22;19920;52.242;20.940;2023-12-20T02:57:16;7.00;99.90
33594;DHT22;19920;52.242;20.940;2023-12-20T02:59:41;7.00;99.90
33594;DHT22;19920;52.242;20.940;2023-12-20T03:02:07;6.90;99.90
33594;DHT22;19920;52.242;20.940;2023-12-20T03:04:33;6.90;99.90
33594;DHT22;19920;52.242;20.940;2023-12-20T03:06:58;6.90;99.90
33594;DHT22;19920;52.242;20.940;2023-12-20T03:09:24;6.90;99.90
33594;DHT22;19920;52.242;20.940;2023-12-20T03:11:49;6.90;99.90
33594;DHT22;19920;52.242;20.940;2023-12-20T03:14:15;6.90;99.90
33594;DHT22;19920;52.242;20.940;2023-12-20T03:16:40;6.90;99.90
33594;DHT22;19920;52.242;20.940;2023-12-20T03:19:06;6.80;99.90
33594;DHT22;19920;52.242;20.940;2023-12-20T03:21:32;6.70;99.90
33594;DHT22;19920;52.242;20.940;2023-12-20T03:23:57;6.80;99.90
33594;DHT22;19920;52.242;20.940;2023-12-20T03:26:23;6.80;99.90
33594;DHT22;19920;52.242;20.940;2023-12-20T03:28:48;6.80;99.90
33594;DHT22;19920;52.242;20.940;2023-12-20T03:31:14;6.80;99.90
33594;DHT22;19920;52.242;20.940;2023-12-20T03:33:40;6.90;99.90
33594;DHT22;19920;52.242;20.940;2023-12-20T03:36:05;6.80;99.90
33594;DHT22;19920;52.242;20.940;2023-12-20T03:38:31;6.90;99.90
33594;DHT22;19920;52.242;20.940;2023-12-20T03:40:57;7.00;99.90
33594;DHT22;19920;52.242;20.940;2023-12-20T03:43:22;6.90;99.90
33594;DHT22;19920;52.242;20.940;2023-12-20T03:45:48;6.90;99.90
33594;DHT22;19920;52.242;20.940;2023-12-20T03:48:13;6.80;99.90
33594;DHT22;19920;52.242;20.940;2023-12-20T03:50:39;6.90;99.90
33594;DHT22;19920;52.242;20.940;2023-12-20T03:53:04;6.90;99.90
33594;DHT22;19920;52.242;20.940;2023-12-20T03:55:30;6.90;99.90
33594;DHT22;19920;52.242;20.940;2023-12-20T03:57:55;6.90;99.90
33594;DHT22;19920;52.242;20.940;2023-12-20T04:00:21;6.90;99.90
33594;DHT22;19920;52.242;20.940;2023-12-20T04:02:47;6.80;99.90
33594;DHT22;19920;52.242;20.940;2023-12-20T04:05:12;6.80;99.90
33594;DHT22;19920;52.242;20.940;2023-12-20T04:07:38;6.70;99.90
33594;DHT22;19920;52.242;20.940;2023-12-20T04:10:04;6.80;99.90
33594;DHT22;19920;52.242;20.940;2023-12-20T04:12:30;6.80;99.90
33594;DHT22;19920;52.242;20.940;2023-12-20T04:14:56;6.80;99.90
33594;DHT22;19920;52.242;20.940;2023-12-20T04:17:22;6.90;99.90
33594;DHT22;19920;52.242;20.940;2023-12-20T04:19:48;6.80;99.90
33594;DHT22;19920;52.242;20.940;2023-12-20T04:22:14;6.80;99.90
33594;DHT22;19920;52.242;20.940;2023-12-20T04:24:40;6.90;99.90
33594;DHT22;19920;52.242;20.940;2023-12-20T04:27:07;6.90;99.90
33594;DHT22;19920;52.242;20.940;2023-12-20T04:29:33;7.00;99.90
33594;DHT22;19920;52.242;20.940;2023-12-20T04:31:59;7.00;99.90
33594;DHT22;19920;52.242;20.940;2023-12-20T04:34:24;7.10;99.90
33594;DHT22;19920;52.242;20.940;2023-12-20T04:36:50;7.00;99.90
33594;DHT22;19920;52.242;20.940;2023-12-20T04:39:15;6.90;99.90
33594;DHT22;19920;52.242;20.940;2023-12-20T04:41:41;6.90;99.90
33594;DHT22;19920;52.242;20.940;2023-12-20T04:44:07;7.00;99.90
33594;DHT22;19920;52.242;20.940;2023-12-20T04:46:32;7.00;99.90
33594;DHT22;19920;52.242;20.940;2023-12-20T04:48:58;7.00;99.90
33594;DHT22;19920;52.242;20.940;2023-12-20T04:51:23;6.90;99.90
33594;DHT22;19920;52.242;20.940;2023-12-20T04:53:49;7.00;99.90
33594;DHT22;19920;52.242;20.940;2023-12-20T04:56:15;6.90;99.90
33594;DHT22;19920;52.242;20.940;2023-12-20T04:58:41;6.90;99.90
33594;DHT22;19920;52.242;20.940;2023-12-20T05:01:08;6.80;99.90
33594;DHT22;19920;52.242;20.940;2023-12-20T05:03:34;6.80;99.90
33594;DHT22;19920;52.242;20.940;2023-12-20T05:06:00;6.90;99.90
33594;DHT22;19920;52.242;20.940;2023-12-20T05:08:25;6.90;99.90
33594;DHT22;19920;52.242;20.940;2023-12-20T05:10:53;6.80;99.90
33594;DHT22;19920;52.242;20.940;2023-12-20T05:13:19;6.90;99.90
33594;DHT22;19920;52.242;20.940;2023-12-20T05:15:44;6.90;99.90
33594;DHT22;19920;52.242;20.940;2023-12-20T05:18:10;6.90;99.90
33594;DHT22;19920;52.242;20.940;2023-12-20T05:20:35;7.00;99.90
33594;DHT22;19920;52.242;20.940;2023-12-20T05:23:01;7.10;99.90
33594;DHT22;19920;52.242;20.940;2023-12-20T05:25:27;7.10;99.90
33594;DHT22;19920;52.242;20.940;2023-12-20T05:27:52;7.00;99.90
33594;DHT22;19920;52.242;20.940;2023-12-20T05:30:18;7.00;99.90
33594;DHT22;19920;52.242;20.940;2023-12-20T05:32:44;7.10;99.90
33594;DHT22;19920;52.242;20.940;2023-12-20T05:35:09;7.10;99.90
33594;DHT22;19920;52.242;20.940;2023-12-20T05:37:35;7.10;99.90
33594;DHT22;19920;52.242;20.940;2023-12-20T05:40:00;7.20;99.90
33594;DHT22;19920;52.242;20.940;2023-12-20T05:42:26;7.20;99.90
33594;DHT22;19920;52.242;20.940;2023-12-20T05:44:51;7.10;99.90
33594;DHT22;19920;52.242;20.940;2023-12-20T05:47:17;7.10;99.90
33594;DHT22;19920;52.242;20.940;2023-12-20T05:49:45;7.20;99.90
33594;DHT22;19920;52.242;20.940;2023-12-20T05:52:10;7.10;99.90
33594;DHT22;19920;52.242;20.940;2023-12-20T05:54:36;7.10;99.90
33594;DHT22;19920;52.242;20.940;2023-12-20T05:57:02;7.10;99.90
33594;DHT22;19920;52.242;20.940;2023-12-20T05:59:27;7.10;99.90
33594;DHT22;19920;52.242;20.940;2023-12-20T06:01:53;7.00;99.90
33594;DHT22;19920;52.242;20.940;2023-12-20T06:04:19;7.10;99.90
33594;DHT22;19920;52.242;20.940;2023-12-20T06:06:44;7.10;99.90
33594;DHT22;19920;52.242;20.940;2023-12-20T06:09:10;7.10;99.90
33594;DHT22;19920;52.242;20.940;2023-12-20T06:11:36;7.00;99.90
33594;DHT22;19920;52.242;20.940;2023-12-20T06:14:01;7.00;99.90
33594;DHT22;19920;52.242;20.940;2023-12-20T06:16:27;7.10;99.90
33594;DHT22;19920;52.242;20.940;2023-12-20T06:18:53;7.00;99.90
33594;DHT22;19920;52.242;20.940;2023-12-20T06:21:18;7.10;99.90
33594;DHT22;19920;52.242;20.940;2023-12-20T06:23:44;7.00;99.90
33594;DHT22;19920;52.242;20.940;2023-12-20T06:26:09;7.00;99.90
33594;DHT22;19920;52.242;20.940;2023-12-20T06:28:35;6.90;99.90
33594;DHT22;19920;52.242;20.940;2023-12-20T06:31:01;7.00;99.90
33594;DHT22;19920;52.242;20.940;2023-12-20T06:33:27;7.00;99.90
33594;DHT22;19920;52.242;20.940;2023-12-20T06:35:52;7.00;99.90
33594;DHT22;19920;52.242;20.940;2023-12-20T06:38:18;6.90;99.90
33594;DHT22;19920;52.242;20.940;2023-12-20T06:40:44;6.90;99.90
33594;DHT22;19920;52.242;20.940;2023-12-20T06:43:11;6.90;99.90
33594;DHT22;19920;52.242;20.940;2023-12-20T06:45:37;6.90;99.90
33594;DHT22;19920;52.242;20.940;2023-12-20T06:48:03;6.90;99.90
33594;DHT22;19920;52.242;20.940;2023-12-20T06:50:29;6.90;99.90
33594;DHT22;19920;52.242;20.940;2023-12-20T06:52:54;6.90;99.90
33594;DHT22;19920;52.242;20.940;2023-12-20T06:55:20;7.00;99.90
33594;DHT22;19920;52.242;20.940;2023-12-20T06:57:45;6.90;99.90
33594;DHT22;19920;52.242;20.940;2023-12-20T07:00:11;6.80;99.90
33594;DHT22;19920;52.242;20.940;2023-12-20T07:02:37;6.80;99.90
33594;DHT22;19920;52.242;20.940;2023-12-20T07:05:03;6.90;99.90
33594;DHT22;19920;52.242;20.940;2023-12-20T07:07:29;6.80;99.90
33594;DHT22;19920;52.242;20.940;2023-12-20T07:09:55;6.90;99.90
33594;DHT22;19920;52.242;20.940;2023-12-20T07:12:20;6.90;99.90
33594;DHT22;19920;52.242;20.940;2023-12-20T07:14:46;6.90;99.90
33594;DHT22;19920;52.242;20.940;2023-12-20T07:17:12;6.90;99.90
33594;DHT22;19920;52.242;20.940;2023-12-20T07:19:40;6.90;99.90
33594;DHT22;19920;52.242;20.940;2023-12-20T07:22:06;6.90;99.90
33594;DHT22;19920;52.242;20.940;2023-12-20T07:24:32;6.90;99.90
33594;DHT22;19920;52.242;20.940;2023-12-20T07:27:00;7.00;99.90
33594;DHT22;19920;52.242;20.940;2023-12-20T07:29:25;7.00;99.90
33594;DHT22;19920;52.242;20.940;2023-12-20T07:31:53;6.90;99.90
33594;DHT22;19920;52.242;20.940;2023-12-20T07:34:22;6.90;99.90
33594;DHT22;19920;52.242;20.940;2023-12-20T07:36:47;6.90;99.90
33594;DHT22;19920;52.242;20.940;2023-12-20T07:39:14;6.90;99.90
33594;DHT22;19920;52.242;20.940;2023-12-20T07:41:39;6.90;99.90
33594;DHT22;19920;52.242;20.940;2023-12-20T07:44:05;6.90;99.90
33594;DHT22;19920;52.242;20.940;2023-12-20T07:46:30;6.80;99.90
33594;DHT22;19920;52.242;20.940;2023-12-20T07:48:56;6.80;99.90
33594;DHT22;19920;52.242;20.940;2023-12-20T07:51:22;6.90;99.90
33594;DHT22;19920;52.242;20.940;2023-12-20T07:53:47;6.90;99.90
33594;DHT22;19920;52.242;20.940;2023-12-20T07:56:16;6.90;99.90
33594;DHT22;19920;52.242;20.940;2023-12-20T07:58:42;6.80;99.90
33594;DHT22;19920;52.242;20.940;2023-12-20T08:01:08;6.80;99.90
33594;DHT22;19920;52.242;20.940;2023-12-20T08:03:34;6.90;99.90
33594;DHT22;19920;52.242;20.940;2023-12-20T08:05:59;6.90;99.90
33594;DHT22;19920;52.242;20.940;2023-12-20T08:08:26;6.90;99.90
33594;DHT22;19920;52.242;20.940;2023-12-20T08:10:51;6.90;99.90
33594;DHT22;19920;52.242;20.940;2023-12-20T08:13:17;7.00;99.90
33594;DHT22;19920;52.242;20.940;2023-12-20T08:15:42;7.00;99.90
33594;DHT22;19920;52.242;20.940;2023-12-20T08:18:08;6.90;99.90
33594;DHT22;19920;52.242;20.940;2023-12-20T08:20:33;6.90;99.90
33594;DHT22;19920;52.242;20.940;2023-12-20T08:22:59;7.00;99.90
33594;DHT22;19920;52.242;20.940;2023-12-20T08:25:24;7.00;99.90
33594;DHT22;19920;52.242;20.940;2023-12-20T08:27:50;6.90;99.90
33594;DHT22;19920;52.242;20.940;2023-12-20T08:30:15;7.00;99.90
33594;DHT22;19920;52.242;20.940;2023-12-20T08:32:46;7.00;99.90
33594;DHT22;19920;52.242;20.940;2023-12-20T08:35:11;7.00;99.90
33594;DHT22;19920;52.242;20.940;2023-12-20T08:37:37;6.90;99.90
33594;DHT22;19920;52.242;20.940;2023-12-20T08:40:03;6.90;99.90
33594;DHT22;19920;52.242;20.940;2023-12-20T08:42:28;6.90;99.90
33594;DHT22;19920;52.242;20.940;2023-12-20T08:44:57;7.00;99.90
33594;DHT22;19920;52.242;20.940;2023-12-20T08:47:23;7.10;99.90
33594;DHT22;19920;52.242;20.940;2023-12-20T08:49:49;7.10;99.90
33594;DHT22;19920;52.242;20.940;2023-12-20T08:52:15;7.10;99.90
33594;DHT22;19920;52.242;20.940;2023-12-20T08:54:40;7.10;99.90
33594;DHT22;19920;52.242;20.940;2023-12-20T08:57:06;7.10;99.90
33594;DHT22;19920;52.242;20.940;2023-12-20T08:59:32;7.20;99.90
33594;DHT22;19920;52.242;20.940;2023-12-20T09:01:58;7.20;99.90
33594;DHT22;19920;52.242;20.940;2023-12-20T09:04:23;7.30;99.90
33594;DHT22;19920;52.242;20.940;2023-12-20T09:06:49;7.10;99.90
33594;DHT22;19920;52.242;20.940;2023-12-20T09:09:15;7.20;99.90
33594;DHT22;19920;52.242;20.940;2023-12-20T09:11:40;7.20;99.90
33594;DHT22;19920;52.242;20.940;2023-12-20T09:14:06;7.10;99.90
33594;DHT22;19920;52.242;20.940;2023-12-20T09:16:32;7.10;99.90
33594;DHT22;19920;52.242;20.940;2023-12-20T09:18:58;7.10;99.90
33594;DHT22;19920;52.242;20.940;2023-12-20T09:21:23;7.00;99.90
33594;DHT22;19920;52.242;20.940;2023-12-20T09:23:49;7.00;99.90
33594;DHT22;19920;52.242;20.940;2023-12-20T09:26:15;7.00;99.90
33594;DHT22;19920;52.242;20.940;2023-12-20T09:28:40;7.10;99.90
33594;DHT22;19920;52.242;20.940;2023-12-20T09:31:06;7.10;99.90
33594;DHT22;19920;52.242;20.940;2023-12-20T09:33:35;7.10;99.90
33594;DHT22;19920;52.242;20.940;2023-12-20T09:36:00;7.00;99.90
33594;DHT22;19920;52.242;20.940;2023-12-20T09:38:26;7.10;99.90
33594;DHT22;19920;52.242;20.940;2023-12-20T09:40:52;7.10;99.90
33594;DHT22;19920;52.242;20.940;2023-12-20T09:43:20;7.10;99.90
33594;DHT22;19920;52.242;20.940;2023-12-20T09:45:47;7.10;99.90
33594;DHT22;19920;52.242;20.940;2023-12-20T09:48:13;7.20;99.90
33594;DHT22;19920;52.242;20.940;2023-12-20T09:50:43;7.20;99.90
33594;DHT22;19920;52.242;20.940;2023-12-20T09:53:10;7.20;99.90
33594;DHT22;19920;52.242;20.940;2023-12-20T09:55:38;7.30;99.90
33594;DHT22;19920;52.242;20.940;2023-12-20T09:58:05;7.30;99.90
33594;DHT22;19920;52.242;20.940;2023-12-20T10:00:32;7.20;99.90
33594;DHT22;19920;52.242;20.940;2023-12-20T10:02:59;7.20;99.90
33594;DHT22;19920;52.242;20.940;2023-12-20T10:05:32;7.10;99.90
33594;DHT22;19920;52.242;20.940;2023-12-20T10:07:59;7.20;99.90
33594;DHT22;19920;52.242;20.940;2023-12-20T10:10:25;7.20;99.90
33594;DHT22;19920;52.242;20.940;2023-12-20T10:13:11;7.20;99.90
33594;DHT22;19920;52.242;20.940;2023-12-20T10:15:38;7.30;99.90
33594;DHT22;19920;52.242;20.940;2023-12-20T10:18:04;7.10;99.90
33594;DHT22;19920;52.242;20.940;2023-12-20T10:20:31;7.20;99.90
33594;DHT22;19920;52.242;20.940;2023-12-20T10:22:58;7.10;99.90
33594;DHT22;19920;52.242;20.940;2023-12-20T10:25:24;7.10;99.90
33594;DHT22;19920;52.242;20.940;2023-12-20T10:27:50;7.10;99.90
33594;DHT22;19920;52.242;20.940;2023-12-20T10:30:33;7.10;99.90
33594;DHT22;19920;52.242;20.940;2023-12-20T10:32:59;7.10;99.90
33594;DHT22;19920;52.242;20.940;2023-12-20T10:35:25;7.10;99.90
33594;DHT22;19920;52.242;20.940;2023-12-20T10:37:55;7.10;99.90
33594;DHT22;19920;52.242;20.940;2023-12-20T10:40:25;7.10;99.90
33594;DHT22;19920;52.242;20.940;2023-12-20T10:42:53;7.20;99.90
33594;DHT22;19920;52.242;20.940;2023-12-20T10:45:19;7.10;99.90
33594;DHT22;19920;52.242;20.940;2023-12-20T10:47:46;7.10;99.90
33594;DHT22;19920;52.242;20.940;2023-12-20T10:50:12;7.10;99.90
33594;DHT22;19920;52.242;20.940;2023-12-20T10:52:38;7.10;99.90
33594;DHT22;19920;52.242;20.940;2023-12-20T10:55:06;7.20;99.90
33594;DHT22;19920;52.242;20.940;2023-12-20T10:57:32;7.30;99.90
33594;DHT22;19920;52.242;20.940;2023-12-20T11:00:01;7.30;99.90
33594;DHT22;19920;52.242;20.940;2023-12-20T11:02:32;7.30;99.90
33594;DHT22;19920;52.242;20.940;2023-12-20T11:05:21;7.20;99.90
33594;DHT22;19920;52.242;20.940;2023-12-20T11:07:59;7.30;99.90
33594;DHT22;19920;52.242;20.940;2023-12-20T11:10:35;7.20;99.90
33594;DHT22;19920;52.242;20.940;2023-12-20T11:13:12;7.20;99.90
33594;DHT22;19920;52.242;20.940;2023-12-20T11:15:42;7.20;99.90
33594;DHT22;19920;52.242;20.940;2023-12-20T11:18:09;7.20;99.90
33594;DHT22;19920;52.242;20.940;2023-12-20T11:20:41;7.20;99.90
33594;DHT22;19920;52.242;20.940;2023-12-20T11:23:10;7.10;99.90
33594;DHT22;19920;52.242;20.940;2023-12-20T11:25:52;7.20;99.90
33594;DHT22;19920;52.242;20.940;2023-12-20T11:28:23;7.20;99.90
33594;DHT22;19920;52.242;20.940;2023-12-20T11:30:54;7.30;99.90
33594;DHT22;19920;52.242;20.940;2023-12-20T11:33:24;7.40;99.90
33594;DHT22;19920;52.242;20.940;2023-12-20T11:35:50;7.40;99.90
33594;DHT22;19920;52.242;20.940;2023-12-20T11:38:16;7.40;99.90
33594;DHT22;19920;52.242;20.940;2023-12-20T11:40:43;7.40;99.90
33594;DHT22;19920;52.242;20.940;2023-12-20T11:43:09;7.40;99.90
33594;DHT22;19920;52.242;20.940;2023-12-20T11:45:35;7.40;99.90
33594;DHT22;19920;52.242;20.940;2023-12-20T11:48:04;7.40;99.90
33594;DHT22;19920;52.242;20.940;2023-12-20T11:50:30;7.30;99.90
33594;DHT22;19920;52.242;20.940;2023-12-20T11:52:56;7.30;99.90
33594;DHT22;19920;52.242;20.940;2023-12-20T11:55:24;7.30;99.90
33594;DHT22;19920;52.242;20.940;2023-12-20T11:57:50;7.20;99.90
33594;DHT22;19920;52.242;20.940;2023-12-20T12:00:16;7.30;99.90
33594;DHT22;19920;52.242;20.940;2023-12-20T12:02:43;7.30;99.90
33594;DHT22;19920;52.242;20.940;2023-12-20T12:05:08;7.30;99.90
33594;DHT22;19920;52.242;20.940;2023-12-20T12:07:35;7.40;99.90
33594;DHT22;19920;52.242;20.940;2023-12-20T12:10:00;7.30;99.90
33594;DHT22;19920;52.242;20.940;2023-12-20T12:12:26;7.30;99.90
33594;DHT22;19920;52.242;20.940;2023-12-20T12:14:53;7.10;99.90
33594;DHT22;19920;52.242;20.940;2023-12-20T12:17:19;7.10;99.90
33594;DHT22;19920;52.242;20.940;2023-12-20T12:19:45;7.10;99.90
33594;DHT22;19920;52.242;20.940;2023-12-20T12:22:12;7.00;99.90
33594;DHT22;19920;52.242;20.940;2023-12-20T12:24:43;6.90;99.90
33594;DHT22;19920;52.242;20.940;2023-12-20T12:27:09;6.90;99.90
33594;DHT22;19920;52.242;20.940;2023-12-20T12:29:36;7.00;99.90
33594;DHT22;19920;52.242;20.940;2023-12-20T12:32:11;6.80;99.90
33594;DHT22;19920;52.242;20.940;2023-12-20T12:34:36;6.60;99.90
33594;DHT22;19920;52.242;20.940;2023-12-20T12:37:03;6.60;99.90
33594;DHT22;19920;52.242;20.940;2023-12-20T12:39:29;6.50;99.90
33594;DHT22;19920;52.242;20.940;2023-12-20T12:41:55;6.50;99.90
33594;DHT22;19920;52.242;20.940;2023-12-20T12:44:21;6.30;99.90
33594;DHT22;19920;52.242;20.940;2023-12-20T12:46:49;6.30;99.90
33594;DHT22;19920;52.242;20.940;2023-12-20T12:49:19;6.20;99.90
33594;DHT22;19920;52.242;20.940;2023-12-20T12:51:47;6.30;99.90
33594;DHT22;19920;52.242;20.940;2023-12-20T12:54:12;6.30;99.90
33594;DHT22;19920;52.242;20.940;2023-12-20T12:56:39;6.40;99.90
33594;DHT22;19920;52.242;20.940;2023-12-20T12:59:04;6.40;99.90
33594;DHT22;19920;52.242;20.940;2023-12-20T13:01:31;6.40;99.90
33594;DHT22;19920;52.242;20.940;2023-12-20T13:03:56;6.40;99.90
33594;DHT22;19920;52.242;20.940;2023-12-20T13:06:22;6.50;99.90
33594;DHT22;19920;52.242;20.940;2023-12-20T13:08:48;6.60;99.90
33594;DHT22;19920;52.242;20.940;2023-12-20T13:11:14;6.60;99.90
33594;DHT22;19920;52.242;20.940;2023-12-20T13:13:39;6.60;99.90
33594;DHT22;19920;52.242;20.940;2023-12-20T13:16:05;6.70;99.90
33594;DHT22;19920;52.242;20.940;2023-12-20T13:18:31;6.70;99.90
33594;DHT22;19920;52.242;20.940;2023-12-20T13:20:56;6.50;99.90
33594;DHT22;19920;52.242;20.940;2023-12-20T13:23:22;6.60;99.90
33594;DHT22;19920;52.242;20.940;2023-12-20T13:25:47;6.60;99.90
33594;DHT22;19920;52.242;20.940;2023-12-20T13:28:13;6.70;99.90
33594;DHT22;19920;52.242;20.940;2023-12-20T13:30:39;6.60;99.90
33594;DHT22;19920;52.242;20.940;2023-12-20T13:33:06;6.60;99.90
33594;DHT22;19920;52.242;20.940;2023-12-20T13:35:32;6.60;99.90
33594;DHT22;19920;52.242;20.940;2023-12-20T13:38:00;6.60;99.90
33594;DHT22;19920;52.242;20.940;2023-12-20T13:40:26;6.50;99.90
33594;DHT22;19920;52.242;20.940;2023-12-20T13:42:52;6.40;99.90
33594;DHT22;19920;52.242;20.940;2023-12-20T13:45:17;6.40;99.90
33594;DHT22;19920;52.242;20.940;2023-12-20T13:47:43;6.40;99.90
33594;DHT22;19920;52.242;20.940;2023-12-20T13:50:09;6.40;99.90
33594;DHT22;19920;52.242;20.940;2023-12-20T13:52:36;6.40;99.90
33594;DHT22;19920;52.242;20.940;2023-12-20T13:55:02;6.60;99.90
33594;DHT22;19920;52.242;20.940;2023-12-20T13:57:27;6.60;99.90
33594;DHT22;19920;52.242;20.940;2023-12-20T13:59:55;6.60;99.90
33594;DHT22;19920;52.242;20.940;2023-12-20T14:02:23;6.60;99.90
33594;DHT22;19920;52.242;20.940;2023-12-20T14:04:48;6.60;99.90
33594;DHT22;19920;52.242;20.940;2023-12-20T14:07:14;6.60;99.90
33594;DHT22;19920;52.242;20.940;2023-12-20T14:09:40;6.60;99.90
33594;DHT22;19920;52.242;20.940;2023-12-20T14:12:11;6.60;99.90
33594;DHT22;19920;52.242;20.940;2023-12-20T14:14:36;6.60;99.90
33594;DHT22;19920;52.242;20.940;2023-12-20T14:17:02;6.70;99.90
33594;DHT22;19920;52.242;20.940;2023-12-20T14:19:27;6.70;99.90
33594;DHT22;19920;52.242;20.940;2023-12-20T14:21:53;6.70;99.90
33594;DHT22;19920;52.242;20.940;2023-12-20T14:24:19;6.60;99.90
33594;DHT22;19920;52.242;20.940;2023-12-20T14:26:44;6.50;99.90
33594;DHT22;19920;52.242;20.940;2023-12-20T14:29:10;6.60;99.90
33594;DHT22;19920;52.242;20.940;2023-12-20T14:31:35;6.50;99.90
33594;DHT22;19920;52.242;20.940;2023-12-20T14:34:03;6.50;99.90
33594;DHT22;19920;52.242;20.940;2023-12-20T14:36:29;6.40;99.90
33594;DHT22;19920;52.242;20.940;2023-12-20T14:38:58;6.40;99.90
33594;DHT22;19920;52.242;20.940;2023-12-20T14:41:23;6.40;99.90
33594;DHT22;19920;52.242;20.940;2023-12-20T14:43:50;6.40;99.90
33594;DHT22;19920;52.242;20.940;2023-12-20T14:46:17;6.40;99.90
33594;DHT22;19920;52.242;20.940;2023-12-20T14:48:43;6.40;99.90
33594;DHT22;19920;52.242;20.940;2023-12-20T14:51:08;6.40;99.90
33594;DHT22;19920;52.242;20.940;2023-12-20T14:53:34;6.50;99.90
33594;DHT22;19920;52.242;20.940;2023-12-20T14:56:05;6.50;99.90
33594;DHT22;19920;52.242;20.940;2023-12-20T14:58:31;6.40;99.90
33594;DHT22;19920;52.242;20.940;2023-12-20T15:00:58;6.30;99.90
33594;DHT22;19920;52.242;20.940;2023-12-20T15:03:23;6.40;99.90
33594;DHT22;19920;52.242;20.940;2023-12-20T15:05:49;6.30;99.90
33594;DHT22;19920;52.242;20.940;2023-12-20T15:08:15;6.30;99.90
33594;DHT22;19920;52.242;20.940;2023-12-20T15:10:41;6.30;99.90
33594;DHT22;19920;52.242;20.940;2023-12-20T15:13:06;6.30;99.90
33594;DHT22;19920;52.242;20.940;2023-12-20T15:15:32;6.40;99.90
33594;DHT22;19920;52.242;20.940;2023-12-20T15:17:59;6.40;99.90
33594;DHT22;19920;52.242;20.940;2023-12-20T15:20:25;6.30;99.90
33594;DHT22;19920;52.242;20.940;2023-12-20T15:22:50;6.20;99.90
33594;DHT22;19920;52.242;20.940;2023-12-20T15:25:16;6.30;99.90